createdAt,value
2023-04-24T00:01:23.013Z,64.85
2023-04-24T00:04:28.562Z,64.83
2023-04-24T00:07:34.510Z,64.94
2023-04-24T00:10:40.747Z,65.05
2023-04-24T00:13:46.667Z,65.17
2023-04-24T00:16:53.726Z,65.25
2023-04-24T00:19:59.124Z,65.41
2023-04-24T00:23:05.923Z,65.62
2023-04-24T00:26:11.076Z,65.72
2023-04-24T00:29:17.052Z,65.83
2023-04-24T00:32:23.525Z,65.78
2023-04-24T00:35:29.434Z,65.74
2023-04-24T00:38:34.457Z,65.78
2023-04-24T00:41:40.817Z,65.93
2023-04-24T00:44:46.787Z,66.15
2023-04-24T00:47:53.426Z,66.38
2023-04-24T00:51:01.820Z,66.48
2023-04-24T00:54:08.209Z,66.55
2023-04-24T00:57:13.987Z,66.66
2023-04-24T01:00:23.148Z,66.73
2023-04-24T01:03:29.687Z,66.75
2023-04-24T01:06:36.128Z,66.76
2023-04-24T01:09:41.721Z,66.77
2023-04-24T01:12:48.678Z,66.84
2023-04-24T01:15:55.108Z,66.84
2023-04-24T01:19:00.881Z,66.91
2023-04-24T01:22:10.420Z,66.92
2023-04-24T01:25:16.527Z,66.89
2023-04-24T01:28:23.366Z,66.83
2023-04-24T01:31:29.867Z,66.90
2023-04-24T01:34:35.761Z,66.96
2023-04-24T01:37:40.973Z,66.95
2023-04-24T01:40:47.904Z,66.95
2023-04-24T01:43:53.754Z,66.91
2023-04-24T01:47:00.883Z,66.85
2023-04-24T01:50:08.448Z,66.87
2023-04-24T01:53:14.789Z,66.89
2023-04-24T01:56:20.736Z,66.81
2023-04-24T01:59:27.137Z,66.92
2023-04-24T02:02:35.596Z,67.16
2023-04-24T02:05:42.640Z,67.24
2023-04-24T02:08:53.932Z,67.22
2023-04-24T02:11:59.855Z,67.28
2023-04-24T02:15:07.305Z,67.41
2023-04-24T02:18:14.955Z,67.50
2023-04-24T02:21:20.944Z,67.42
2023-04-24T02:24:28.295Z,67.35
2023-04-24T02:27:34.168Z,67.47
2023-04-24T02:30:39.011Z,67.65
2023-04-24T02:33:44.680Z,67.68
2023-04-24T02:36:50.325Z,67.67
2023-04-24T02:39:56.166Z,67.77
2023-04-24T02:43:02.981Z,67.86
2023-04-24T02:46:10.145Z,67.93
2023-04-24T02:49:17.232Z,68.15
2023-04-24T02:52:22.415Z,68.27
2023-04-24T02:55:28.129Z,68.25
2023-04-24T02:58:34.263Z,68.41
2023-04-24T03:01:39.684Z,68.62
2023-04-24T03:04:47.506Z,68.73
2023-04-24T03:07:55.218Z,68.81
2023-04-24T03:11:01.233Z,68.86
2023-04-24T03:14:07.280Z,68.92
2023-04-24T03:17:13.604Z,68.94
2023-04-24T03:20:20.194Z,68.91
2023-04-24T03:23:27.134Z,68.96
2023-04-24T03:26:32.969Z,68.98
2023-04-24T03:29:49.556Z,68.89
2023-04-24T03:32:58.717Z,68.83
2023-04-24T03:36:06.845Z,68.89
2023-04-24T03:39:14.498Z,68.91
2023-04-24T03:42:26.132Z,68.85
2023-04-24T03:45:32.509Z,68.91
2023-04-24T03:48:41.320Z,68.95
2023-04-24T03:51:50.163Z,69.06
2023-04-24T03:54:58.801Z,69.26
2023-04-24T03:58:05.871Z,69.17
2023-04-24T04:01:11.742Z,69.17
2023-04-24T04:04:25.136Z,69.19
2023-04-24T04:07:32.780Z,69.20
2023-04-24T04:10:38.164Z,69.26
2023-04-24T04:13:45.436Z,69.33
2023-04-24T04:16:54.952Z,69.37
2023-04-24T04:20:01.675Z,69.33
2023-04-24T04:23:07.870Z,69.24
2023-04-24T04:26:15.911Z,69.23
2023-04-24T04:29:30.239Z,69.35
2023-04-24T04:32:36.716Z,69.42
2023-04-24T04:35:42.760Z,69.43
2023-04-24T04:38:50.409Z,69.41
2023-04-24T04:42:00.679Z,69.12
2023-04-24T04:45:07.932Z,69.24
2023-04-24T04:48:16.528Z,69.22
2023-04-24T04:51:22.325Z,69.21
2023-04-24T04:54:28.768Z,69.29
2023-04-24T04:57:35.412Z,69.38
2023-04-24T05:00:44.775Z,69.41
2023-04-24T05:03:52.814Z,69.34
2023-04-24T05:06:59.833Z,69.37
2023-04-24T05:10:05.928Z,69.42
2023-04-24T05:13:13.997Z,69.40
2023-04-24T05:16:18.614Z,69.51
2023-04-24T05:19:26.312Z,69.54
2023-04-24T05:22:31.750Z,69.50
2023-04-24T05:25:39.754Z,69.56
2023-04-24T05:28:46.808Z,69.44
2023-04-24T05:31:53.980Z,69.52
2023-04-24T05:35:01.293Z,69.43
2023-04-24T05:38:09.462Z,69.31
2023-04-24T05:41:16.281Z,69.38
2023-04-24T05:44:21.671Z,69.38
2023-04-24T05:47:27.092Z,69.39
2023-04-24T05:50:32.505Z,69.33
2023-04-24T05:53:42.038Z,69.26
2023-04-24T05:56:47.922Z,69.34
2023-04-24T05:59:55.457Z,69.34
2023-04-24T06:03:03.574Z,69.35
2023-04-24T06:06:10.038Z,69.37
2023-04-24T06:09:16.810Z,69.41
2023-04-24T06:12:23.393Z,69.28
2023-04-24T06:15:31.375Z,69.11
2023-04-24T06:18:40.669Z,69.05
2023-04-24T06:21:48.487Z,68.88
2023-04-24T06:24:56.499Z,68.96
2023-04-24T06:28:03.261Z,68.94
2023-04-24T06:31:12.012Z,68.90
2023-04-24T06:34:17.943Z,68.92
2023-04-24T06:37:23.597Z,68.80
2023-04-24T06:40:29.577Z,68.76
2023-04-24T06:43:35.450Z,68.84
2023-04-24T06:46:42.040Z,68.83
2023-04-24T06:49:49.474Z,68.96
2023-04-24T06:52:57.299Z,68.73
2023-04-24T06:56:04.405Z,68.78
2023-04-24T06:59:10.959Z,68.78
2023-04-24T07:02:18.005Z,68.79
2023-04-24T07:05:27.316Z,68.88
2023-04-24T07:08:33.693Z,68.67
2023-04-24T07:11:41.974Z,68.74
2023-04-24T07:14:48.487Z,68.68
2023-04-24T07:17:54.192Z,68.75
2023-04-24T07:21:00.781Z,68.60
2023-04-24T07:24:13.163Z,68.29
2023-04-24T07:27:23.108Z,68.17
2023-04-24T07:30:31.724Z,68.01
2023-04-24T07:33:37.726Z,67.70
2023-04-24T07:36:42.910Z,67.36
2023-04-24T07:39:50.112Z,67.38
2023-04-24T07:42:59.197Z,67.26
2023-04-24T07:46:09.399Z,67.18
2023-04-24T07:49:17.055Z,66.80
2023-04-24T07:52:23.296Z,66.58
2023-04-24T07:55:28.560Z,66.54
2023-04-24T07:58:34.368Z,66.44
2023-04-24T08:01:39.400Z,66.25
2023-04-24T08:04:46.051Z,66.25
2023-04-24T08:07:54.918Z,66.32
2023-04-24T08:11:01.150Z,66.45
2023-04-24T08:14:06.994Z,66.37
2023-04-24T08:17:13.492Z,66.22
2023-04-24T08:20:23.278Z,66.11
2023-04-24T08:23:30.204Z,65.97
2023-04-24T08:26:36.928Z,65.82
2023-04-24T08:29:43.681Z,65.66
2023-04-24T08:32:49.091Z,65.68
2023-04-24T08:35:49.487Z,65.65
2023-04-24T08:38:55.891Z,65.59
2023-04-24T08:42:00.985Z,65.41
2023-04-24T08:45:06.688Z,65.24
2023-04-24T08:48:23.322Z,65.03
2023-04-24T08:51:25.788Z,64.68
2023-04-24T08:54:35.043Z,64.57
2023-04-24T08:57:43.673Z,64.37
2023-04-24T09:00:52.669Z,64.25
2023-04-24T09:03:59.012Z,64.35
2023-04-24T09:07:06.758Z,64.30
2023-04-24T09:10:12.626Z,63.99
2023-04-24T09:13:18.586Z,63.79
2023-04-24T09:16:26.602Z,63.49
2023-04-24T09:19:33.626Z,63.02
2023-04-24T09:22:40.440Z,62.68
2023-04-24T09:25:49.654Z,62.42
2023-04-24T09:28:57.274Z,61.82
2023-04-24T09:32:03.120Z,61.44
2023-04-24T09:35:31.304Z,61.06
2023-04-24T09:38:53.853Z,60.91
2023-04-24T09:42:11.111Z,60.71
2023-04-24T09:45:51.829Z,60.52
2023-04-24T09:48:59.667Z,60.10
2023-04-24T09:52:06.774Z,59.74
2023-04-24T09:55:14.088Z,59.51
2023-04-24T09:58:20.286Z,59.26
2023-04-24T10:01:26.997Z,59.15
2023-04-24T10:04:38.183Z,59.05
2023-04-24T10:07:44.095Z,58.88
2023-04-24T10:10:55.938Z,58.59
2023-04-24T10:14:01.774Z,58.43
2023-04-24T10:17:09.758Z,58.07
2023-04-24T10:20:16.747Z,57.71
2023-04-24T10:23:26.825Z,57.60
2023-04-24T10:26:34.444Z,57.64
2023-04-24T10:29:42.917Z,57.54
2023-04-24T10:32:49.836Z,57.47
2023-04-24T10:35:59.410Z,57.21
2023-04-24T10:39:05.299Z,56.63
2023-04-24T10:42:10.586Z,56.12
2023-04-24T10:45:21.692Z,55.39
2023-04-24T10:48:31.586Z,54.93
2023-04-24T10:51:39.834Z,54.62
2023-04-24T10:55:03.838Z,54.75
2023-04-24T10:58:19.842Z,54.61
2023-04-24T11:01:26.939Z,54.36
2023-04-24T11:04:46.393Z,53.92
2023-04-24T11:08:30.426Z,53.64
2023-04-24T11:11:36.800Z,53.71
2023-04-24T11:14:41.548Z,53.62
2023-04-24T11:17:52.959Z,53.30
2023-04-24T11:21:00.211Z,52.98
2023-04-24T11:24:07.982Z,52.51
2023-04-24T11:27:23.644Z,52.02
2023-04-24T11:30:30.878Z,51.74
2023-04-24T11:33:36.441Z,51.52
2023-04-24T11:36:42.201Z,51.38
2023-04-24T11:39:52.643Z,51.41
2023-04-24T11:43:08.158Z,51.31
2023-04-24T11:46:15.615Z,51.28
2023-04-24T11:49:20.324Z,51.28
2023-04-24T11:52:26.493Z,51.13
2023-04-24T11:55:37.178Z,51.02
2023-04-24T11:58:42.527Z,50.86
2023-04-24T12:01:57.717Z,50.64
2023-04-24T12:05:04.360Z,50.50
2023-04-24T12:08:13.378Z,50.40
2023-04-24T12:11:20.798Z,50.40
2023-04-24T12:14:29.313Z,50.33
2023-04-24T12:17:42.113Z,50.09
2023-04-24T12:20:49.247Z,50.00
2023-04-24T12:23:56.054Z,49.89
2023-04-24T12:27:02.785Z,49.77
2023-04-24T12:30:16.750Z,49.75
2023-04-24T12:33:28.110Z,49.73
2023-04-24T12:36:37.328Z,49.67
2023-04-24T12:39:42.535Z,49.50
2023-04-24T12:42:47.924Z,49.43
2023-04-24T12:45:55.696Z,49.26
2023-04-24T12:49:02.021Z,49.10
2023-04-24T12:52:07.825Z,48.94
2023-04-24T12:55:17.846Z,49.00
2023-04-24T12:58:24.912Z,49.14
2023-04-24T13:01:37.053Z,49.08
2023-04-24T13:04:43.748Z,48.85
2023-04-24T13:07:50.248Z,48.66
2023-04-24T13:10:58.080Z,48.59
2023-04-24T13:14:03.793Z,48.51
2023-04-24T13:17:09.378Z,48.64
2023-04-24T13:20:14.508Z,48.63
2023-04-24T13:23:23.236Z,48.68
2023-04-24T13:26:29.416Z,48.79
2023-04-24T13:29:34.843Z,48.92
2023-04-24T13:32:43.301Z,48.96
2023-04-24T13:35:49.615Z,49.11
2023-04-24T13:38:56.011Z,49.31
2023-04-24T13:42:04.875Z,49.45
2023-04-24T13:45:23.764Z,49.53
2023-04-24T13:48:16.792Z,49.50
2023-04-24T13:51:23.094Z,49.42
2023-04-24T13:54:30.175Z,49.39
2023-04-24T13:57:36.603Z,49.36
2023-04-24T14:00:35.605Z,49.21
2023-04-24T14:03:28.984Z,49.11
2023-04-24T14:06:35.202Z,48.67
2023-04-24T14:09:40.838Z,48.46
2023-04-24T14:12:48.006Z,48.10
2023-04-24T14:15:54.528Z,47.31
2023-04-24T14:19:01.512Z,47.01
2023-04-24T14:22:08.142Z,46.87
2023-04-24T14:25:15.590Z,46.98
2023-04-24T14:28:23.595Z,47.10
2023-04-24T14:31:29.082Z,47.33
2023-04-24T14:34:34.761Z,47.58
2023-04-24T14:37:40.135Z,47.66
2023-04-24T14:41:05.411Z,48.01
2023-04-24T14:43:55.618Z,48.26
2023-04-24T14:47:03.579Z,48.61
2023-04-24T14:50:08.539Z,48.88
2023-04-24T14:53:15.671Z,49.05
2023-04-24T14:56:20.569Z,49.12
2023-04-24T14:59:25.710Z,49.15
2023-04-24T15:02:31.425Z,49.19
2023-04-24T15:05:36.986Z,49.34
2023-04-24T15:08:43.570Z,49.45
2023-04-24T15:11:50.217Z,49.47
2023-04-24T15:14:55.372Z,49.35
2023-04-24T15:18:00.083Z,49.50
2023-04-24T15:21:08.056Z,49.68
2023-04-24T15:24:14.723Z,49.80
2023-04-24T15:27:19.968Z,50.13
2023-04-24T15:30:25.851Z,50.42
2023-04-24T15:33:34.158Z,50.51
2023-04-24T15:36:40.978Z,50.65
2023-04-24T15:39:47.305Z,50.83
2023-04-24T15:42:53.528Z,51.00
2023-04-24T15:45:59.670Z,51.14
2023-04-24T15:49:05.462Z,51.33
2023-04-24T15:52:13.109Z,51.57
2023-04-24T15:55:19.099Z,51.60
2023-04-24T15:58:25.060Z,52.00
2023-04-24T16:01:31.523Z,52.27
2023-04-24T16:04:37.227Z,52.55
2023-04-24T16:07:43.890Z,52.74
2023-04-24T16:10:51.560Z,52.86
2023-04-24T16:13:57.308Z,53.00
2023-04-24T16:17:06.225Z,53.17
2023-04-24T16:20:12.022Z,53.35
2023-04-24T16:23:18.245Z,53.56
2023-04-24T16:26:24.240Z,53.66
2023-04-24T16:29:30.963Z,53.81
2023-04-24T16:32:37.203Z,53.97
2023-04-24T16:35:42.499Z,54.03
2023-04-24T16:38:48.116Z,54.18
2023-04-24T16:41:59.073Z,54.30
2023-04-24T16:45:03.605Z,54.46
2023-04-24T16:48:11.814Z,54.67
2023-04-24T16:51:17.530Z,54.81
2023-04-24T16:54:24.028Z,54.95
2023-04-24T16:57:30.635Z,55.09
2023-04-24T17:00:28.959Z,55.29
2023-04-24T17:03:21.457Z,55.48
2023-04-24T17:06:29.418Z,55.61
2023-04-24T17:09:36.087Z,55.74
2023-04-24T17:12:41.387Z,55.89
2023-04-24T17:15:47.482Z,56.11
2023-04-24T17:18:53.813Z,56.31
2023-04-24T17:21:59.309Z,56.51
2023-04-24T17:25:05.910Z,56.69
2023-04-24T17:28:12.019Z,56.83
2023-04-24T17:31:21.260Z,57.03
2023-04-24T17:34:27.814Z,57.22
2023-04-24T17:37:33.193Z,57.40
2023-04-24T17:40:37.804Z,57.54
2023-04-24T17:43:44.651Z,57.69
2023-04-24T17:46:50.670Z,57.86
2023-04-24T17:49:58.759Z,58.04
2023-04-24T17:53:07.468Z,58.25
2023-04-24T17:56:14.918Z,58.45
2023-04-24T17:59:21.401Z,58.64
2023-04-24T18:02:28.699Z,58.86
2023-04-24T18:05:37.337Z,59.06
2023-04-24T18:08:44.703Z,59.20
2023-04-24T18:11:50.583Z,59.25
2023-04-24T18:15:10.416Z,59.32
2023-04-24T18:18:05.879Z,59.46
2023-04-24T18:21:12.767Z,59.62
2023-04-24T18:24:18.041Z,59.71
2023-04-24T18:27:25.064Z,59.84
2023-04-24T18:30:31.435Z,59.95
2023-04-24T18:33:36.768Z,60.09
2023-04-24T18:36:42.682Z,60.27
2023-04-24T18:39:49.673Z,60.46
2023-04-24T18:42:58.127Z,60.78
2023-04-24T18:46:04.077Z,60.98
2023-04-24T18:49:10.051Z,61.11
2023-04-24T18:52:17.273Z,61.22
2023-04-24T18:55:23.437Z,61.38
2023-04-24T18:58:28.811Z,61.54
2023-04-24T19:01:34.068Z,61.67
2023-04-24T19:04:39.771Z,61.76
2023-04-24T19:07:48.750Z,61.88
2023-04-24T19:10:49.985Z,61.96
2023-04-24T19:13:56.862Z,62.05
2023-04-24T19:17:02.406Z,62.24
2023-04-24T19:20:10.180Z,62.40
2023-04-24T19:23:16.901Z,62.54
2023-04-24T19:26:24.395Z,62.77
2023-04-24T19:29:29.806Z,63.00
2023-04-24T19:32:36.027Z,63.11
2023-04-24T19:35:41.363Z,63.18
2023-04-24T19:38:49.252Z,63.24
2023-04-24T19:41:56.651Z,63.26
2023-04-24T19:45:02.488Z,63.32
2023-04-24T19:48:08.614Z,63.39
2023-04-24T19:51:15.924Z,63.48
2023-04-24T19:54:22.825Z,63.58
2023-04-24T19:57:29.158Z,63.70
2023-04-24T20:00:35.201Z,63.85
2023-04-24T20:03:44.916Z,63.94
2023-04-24T20:06:51.434Z,64.02
2023-04-24T20:10:00.848Z,64.19
2023-04-24T20:13:10.057Z,64.29
2023-04-24T20:16:16.832Z,64.37
2023-04-24T20:19:23.639Z,64.45
2023-04-24T20:22:30.899Z,64.57
2023-04-24T20:25:38.122Z,64.63
2023-04-24T20:28:43.863Z,64.69
2023-04-24T20:31:50.908Z,64.79
2023-04-24T20:34:56.155Z,64.88
2023-04-24T20:38:02.986Z,65.03
2023-04-24T20:41:08.022Z,65.16
2023-04-24T20:44:13.420Z,65.21
2023-04-24T20:47:19.130Z,65.32
2023-04-24T20:50:25.674Z,65.37
2023-04-24T20:53:31.363Z,65.46
2023-04-24T20:56:37.707Z,65.56
2023-04-24T20:59:44.325Z,65.61
2023-04-24T21:02:50.095Z,65.68
2023-04-24T21:05:58.379Z,65.78
2023-04-24T21:09:06.849Z,65.85
2023-04-24T21:12:13.016Z,66.00
2023-04-24T21:15:17.909Z,66.08
2023-04-24T21:18:24.006Z,66.18
2023-04-24T21:21:31.981Z,66.31
2023-04-24T21:24:37.061Z,66.44
2023-04-24T21:27:42.971Z,66.51
2023-04-24T21:30:49.092Z,66.58
2023-04-24T21:33:56.882Z,66.69
2023-04-24T21:37:03.313Z,66.79
2023-04-24T21:40:11.842Z,66.86
2023-04-24T21:43:21.809Z,66.94
2023-04-24T21:46:25.075Z,67.00
2023-04-24T21:49:31.171Z,67.07
2023-04-24T21:52:36.919Z,67.11
2023-04-24T21:55:43.159Z,67.09
2023-04-24T21:58:50.188Z,67.02
2023-04-24T22:01:57.019Z,67.00
2023-04-24T22:05:04.189Z,66.98
2023-04-24T22:08:10.316Z,67.01
2023-04-24T22:11:26.595Z,67.11
2023-04-24T22:14:25.740Z,67.21
2023-04-24T22:17:33.947Z,67.35
2023-04-24T22:20:41.366Z,67.45
2023-04-24T22:23:49.241Z,67.55
2023-04-24T22:26:54.729Z,67.67
2023-04-24T22:30:00.565Z,67.82
2023-04-24T22:33:07.748Z,67.93
2023-04-24T22:36:14.381Z,68.01
2023-04-24T22:39:21.850Z,67.98
2023-04-24T22:42:29.396Z,67.82
2023-04-24T22:45:34.650Z,67.79
2023-04-24T22:48:43.432Z,67.72
2023-04-24T22:51:49.209Z,67.73
2023-04-24T22:54:54.738Z,67.94
2023-04-24T22:58:04.489Z,68.03
2023-04-24T23:01:11.307Z,68.11
2023-04-24T23:04:18.112Z,68.25
2023-04-24T23:07:24.554Z,68.37
2023-04-24T23:10:32.968Z,68.47
2023-04-24T23:13:39.478Z,68.57
2023-04-24T23:16:45.814Z,68.56
2023-04-24T23:19:51.505Z,68.63
2023-04-24T23:22:57.942Z,68.74
2023-04-24T23:26:04.004Z,68.84
2023-04-24T23:29:09.891Z,68.87
2023-04-24T23:32:16.005Z,68.96
2023-04-24T23:35:22.880Z,69.04
2023-04-24T23:38:34.053Z,69.15
2023-04-24T23:41:34.895Z,69.21
2023-04-24T23:44:40.139Z,69.18
2023-04-24T23:47:46.457Z,69.14
2023-04-24T23:50:54.643Z,69.22
2023-04-24T23:54:00.608Z,69.26
2023-04-24T23:57:06.860Z,69.31
